This is the latest recevied weather packets stored in our database for station/object TG6YMD-19. If no packets are shown the sender has not sent any weather packets the latest 10 day(s).
| Time | Temp. | Humidity | Pressure | Rain* | Wind** | Luminosity | Snow |
|---|---|---|---|---|---|---|---|
| 1777999670 | 33.89° C | 46% | 1012 hPa | 0 mm | - | - | - |
| 1777999069 | 34.44° C | 46% | 1012 hPa | 0 mm | - | - | - |
| 1777998469 | 31.67° C | 57% | 1013 hPa | 0 mm | - | - | - |
| 1777997868 | 32.22° C | 57% | 1013 hPa | 0 mm | - | - | - |
| 1777997267 | 32.22° C | 57% | 1013 hPa | 0 mm | - | - | - |
| 1777996667 | 30.56° C | 55% | 1013 hPa | 0 mm | - | - | - |
| 1777996066 | 30.56° C | 55% | 1013 hPa | 0 mm | - | - | - |
| 1777995466 | 30.56° C | 55% | 1013 hPa | 0 mm | - | - | - |
| 1777994865 | 30.56° C | 55% | 1013 hPa | 0 mm | - | - | - |
| 1777994264 | 30.56° C | 55% | 1013 hPa | 0 mm | - | - | - |
| 1777993664 | 28.33° C | 70% | 1013 hPa | 0 mm | - | - | - |
| 1777993063 | 28.33° C | 70% | 1013 hPa | 0 mm | - | - | - |
| 1777992463 | 28.33° C | 70% | 1013 hPa | 0 mm | - | - | - |
| 1777991862 | 28.33° C | 70% | 1013 hPa | 0 mm | - | - | - |
| 1777991261 | 27.22° C | 78% | 1013 hPa | 0 mm | - | - | - |
| 1777990661 | 27.78° C | 78% | 1013 hPa | 0 mm | - | - | - |
| 1777990060 | 28.33° C | 78% | 1013 hPa | 0 mm | - | - | - |
| 1777989460 | 26.67° C | 78% | 1013 hPa | 0 mm | - | - | - |
| 1777988859 | 26.67° C | 78% | 1013 hPa | 0 mm | - | - | - |
| 1777988258 | 26.67° C | 78% | 1013 hPa | 0 mm | - | - | - |
| 1777987658 | 26.67° C | 78% | 1013 hPa | 0 mm | - | - | - |
| 1777987057 | 26.67° C | 78% | 1013 hPa | 0 mm | - | - | - |
| 1777986457 | 26.67° C | 78% | 1013 hPa | 0 mm | - | - | - |
| 1777985856 | 24.44° C | 88% | 1013 hPa | 0 mm | - | - | - |
| 1777985255 | 24.44° C | 88% | 1013 hPa | 0 mm | - | - | - |
* Rain latest hour (hover to see other rain measurements)
** Current wind speed in m/s (hover to see current wind gust speed)